Terminal Aerodrome Forecast
Issued by NWS

Home | Current Version | Previous Version | Text Only | Print | Product List | Glossary On
Versions: 1 2 3 4 5 6 7 8 9 10 11 12
000
FTUS43 KICT 202322
TAFRSL
TAF
KRSL 202322Z 2100/2124 18028G36KT P6SM SCT100
     FM210600 18025G33KT P6SM BKN025
     FM211200 21016G24KT P6SM SCT015 BKN025
     FM211700 34019G25KT P6SM SCT060 SCT100=

USA.gov is the U.S. government's official web portal to all federal, state and local government web resources and services.